Tiempo atmosférico en la estación meteorológica de Palma Aeropuerto, Illes Balears (8 m.)



Fecha
DESCASC
Temp. máxima en grados centígrados (hora)
DESCASC
Temp. mínima en grados centígrados (hora)
DESCASC
Temp. media en grados centígrados
DESCASC
Racha de viento máxima en m/sg (hora)
DESCASC
Velocidad máxima media en intervalos de 10 minutos(hora)
DESCASC
Precipitaciones diarias en mm
DESCASC
Precipitaciones de 00:00 a 06:00 en mm
DESCASC
Precipitaciones de 06:00 a 12:00 en mm
DESCASC
Precipitaciones de 12:00 a 18:00 en mm
DESCASC
Precipitaciones de 18:00 a 24:00 en mm
DESCASC

Gráficas

Temp. máximas Temp. mínimas Temp. medias Precipitaciones Rachas de viento máximas Velocidades máximas media en intervalos de 10 minutos

Datos horarios

Fecha y hora oficial Temperatura (ºC) Velocidad del viento (km/h) Dirección del viento Racha (km/h) Dirección de racha Precipitación (mm) Presión (hPa) Tendencia (hPa) Humedad (%)
2019-12-15 23:00:00 9.3 5 Este 9 Este 0 1013.9 -0.2 94
2019-12-15 22:00:00 9.6 4 Norte 8 Nordeste 0 1014.1 0.1 92
2019-12-15 21:00:00 10.8 4 Nordeste 15 Oeste 0 1014.2 0.4 89
2019-12-15 20:00:00 13.4 11 Sudoeste 17 Sudoeste 0 1014.1 0.2 80
2019-12-15 19:00:00 14.5 13 Sudoeste 21 Sudoeste 0 1014 -0.2 79
2019-12-15 18:00:00 14.6 13 Sudoeste 22 Sudoeste 0 1013.8 -0.3 79
2019-12-15 17:00:00 15.4 16 Sudoeste 22 Sudoeste 0 1013.9 -0.4 74
2019-12-15 16:00:00 15.9 18 Sudoeste 26 Sudoeste 0 1014.2 -0.6 66
2019-12-15 15:00:00 16.6 20 Sudoeste 30 Oeste 0 1014.1 -1 67
2019-12-15 14:00:00 16.5 22 Sudoeste 33 Sudoeste 0 1014.3 -1.2 63
2019-12-15 13:00:00 16.6 26 Sudoeste 35 Sudoeste 0 1014.8 -0.2 68
2019-12-15 12:00:00 16.2 23 Sudoeste 30 Sudoeste 0 1015.1 0.4 67
2019-12-15 11:00:00 15.8 19 Oeste 28 Sudoeste 0 1015.5 1.2 74
2019-12-15 10:00:00 14.9 18 Oeste 24 Sudoeste 0 1015 0.9 78
2019-12-15 09:00:00 10.7 8 Oeste 11 Oeste 0 1014.7 0.7 91
2019-12-15 08:00:00 8 9 Noroeste 13 Noroeste 0 1014.3 0.2 92
2019-12-15 07:00:00 11.9 12 Oeste 22 Oeste 0 1014.1 -0.4 85
2019-12-15 06:00:00 6.7 5 Nordeste 9 Nordeste 0 1014 -0.9 96
2019-12-15 05:00:00 6.7 4 Nordeste -- -- 0 1014.1 -0.7 96
2019-12-15 04:00:00 7.6 4 Este 5 Este 0 1014.5 -1 95
2019-12-15 03:00:00 8.3 4 Nordeste 5 Nordeste 0 1014.9 -1.2 95
2019-12-15 02:00:00 9.2 4 Nordeste -- -- -- 1014.8 -1.3 94
2019-12-15 01:00:00 9.5 5 Nordeste 8 Este 0 1015.5 -0.6 93
2019-12-15 00:00:00 10.2 5 Este 11 Oeste 0 1016.1 -0.2 89
2019-12-14 23:00:00 12.9 7 Oeste 15 Oeste 0 1016.1 0.3 85
2019-12-14 22:00:00 13.7 12 Oeste 26 Oeste 0 1016.1 1 82
2019-12-14 21:00:00 14.2 18 Sudoeste 26 Sudoeste 0 1016.3 1.7 84
2019-12-14 20:00:00 12.3 6 Este 8 Este 0 1015.8 1.4 91
2019-12-14 19:00:00 13.9 6 Noroeste 17 Sudoeste 0 1015.1 0.8 87
2019-12-14 18:00:00 15 12 Oeste 24 Sudoeste 0 1014.6 0.3 80
2019-12-14 17:00:00 16.1 14 Sudoeste 26 Sudoeste 0 1014.4 0.2 78
2019-12-14 16:00:00 17.1 22 Sudoeste 35 Sudoeste 0 1014.3 0.2 75
2019-12-14 15:00:00 17.6 24 Sudoeste 32 Sudoeste 0 1014.3 -0.4 75
2019-12-14 14:00:00 18.4 23 Sudoeste 30 Sudoeste 0 1014.2 -0.5 71
2019-12-14 13:00:00 18.3 24 Sudoeste 30 Sudoeste 0 1014.1 0.1 69
2019-12-14 12:00:00 18.9 16 Sudoeste 30 Oeste 0 1014.7 1.6 62
2019-12-14 11:00:00 17.9 21 Oeste 32 Oeste 0 1014.7 2.1 67
2019-12-14 10:00:00 17 24 Sudoeste 30 Sudoeste 0 1014 1.8 67
2019-12-14 09:00:00 14.4 5 Sur 17 Noroeste 0 1013.1 1.7 67
2019-12-14 08:00:00 14.6 9 Noroeste 24 Oeste 0 1012.6 1.8 66
2019-12-14 07:00:00 14.9 19 Oeste 26 Oeste 0 1012.2 2.2 73
2019-12-14 06:00:00 16.2 14 Oeste 48 Oeste 0 1011.4 1.8 63
2019-12-14 05:00:00 17 14 Oeste 41 Oeste 0 1010.8 1.6 60
2019-12-14 04:00:00 17.4 4 Sur 37 Oeste 0 1010 0.7 59
2019-12-14 03:00:00 16.6 3 Este 41 Noroeste 0 1009.6 0.6 64
2019-12-14 02:00:00 18.4 21 Oeste -- -- -- 1009.2 0.4 55
2019-12-14 01:00:00 18.4 23 Oeste 50 Oeste 0 1009.3 0.8 57
2019-12-14 00:00:00 17.9 37 Oeste 54 Oeste 0 1009 0.6 63
2019-12-13 23:00:00 18 37 Oeste 54 Oeste 0 1008.8 1.3 65
2019-12-13 22:00:00 17.8 37 Sudoeste 46 Sudoeste 0 1008.5 1.8 68
2019-12-13 21:00:00 18 33 Sudoeste 54 Oeste 0 1008.4 2.5 66
2019-12-13 20:00:00 17.7 36 Sudoeste 50 Sudoeste 0 1007.5 2.1 70
2019-12-13 19:00:00 18.2 36 Sudoeste 50 Sudoeste 0 1006.7 2.3 63
2019-12-13 18:00:00 18.2 28 Sudoeste 48 Sudoeste 0 1005.9 2.2 61
2019-12-13 17:00:00 18.2 42 Sudoeste 55 Sudoeste 0 1005.4 1.6 62
2019-12-13 16:00:00 18.3 48 Sudoeste 67 Sudoeste 0 1004.4 -0.1 60
2019-12-13 15:00:00 18.3 52 Sudoeste 65 Sudoeste 0 1003.7 -0.9 62
2019-12-13 14:00:00 18.5 49 Sudoeste 63 Sudoeste 0 1003.8 -0.9 63
2019-12-13 13:00:00 18.7 36 Oeste 61 Oeste 0 1004.5 0 60
2019-12-13 12:00:00 18.1 39 Oeste 65 Oeste 0 1004.6 1.6 66
2019-12-13 11:00:00 17.9 44 Oeste 63 Oeste 0 1004.7 1.8 68
2019-12-13 10:00:00 17.5 40 Oeste 61 Oeste 0 1004.5 1 69
2019-12-13 09:00:00 16.8 43 Oeste 63 Oeste 0 1003 -0.7 72
2019-12-13 08:00:00 16.6 48 Oeste 65 Oeste 0 1002.9 -1 73
2019-12-13 07:00:00 16.4 44 Oeste 63 Oeste 0 1003.5 -1.3 71
2019-12-13 06:00:00 16.1 40 Oeste 55 Oeste 0 1003.7 -1.8 71
2019-12-13 05:00:00 15.8 37 Oeste 55 Oeste 0 1003.9 -1.6 72
2019-12-13 04:00:00 15.7 37 Oeste 59 Oeste 0 1004.8 -1.3 72
2019-12-13 03:00:00 15.7 39 Oeste 61 Oeste 0 1005.5 -1.3 67
2019-12-13 02:00:00 15.4 33 Oeste -- -- -- 1005.5 -1.8 67
2019-12-13 01:00:00 15 36 Oeste 52 Oeste 0 1006.1 -1.8 67
2019-12-13 00:00:00 14.3 30 Oeste 55 Oeste 0 1006.8 -1.7 68
2019-12-12 23:00:00 14.2 29 Oeste 46 Oeste 0 1007.3 -1.7 65
2019-12-12 22:00:00 14.3 20 Oeste 39 Oeste 0 1007.9 -1.9 62
2019-12-12 21:00:00 14.1 19 Oeste 35 Oeste 0 1008.5 -1.6 64
2019-12-12 20:00:00 14 28 Oeste 37 Oeste 0 1009 -2.3 68
2019-12-12 19:00:00 13.8 21 Oeste 32 Oeste 0 1009.8 -2.2 67
2019-12-12 18:00:00 13.3 16 Oeste 30 Oeste 0 1010.1 -2.1 71
2019-12-12 17:00:00 13.7 22 Oeste 32 Oeste 0 1011.3 -1.9 70
2019-12-12 16:00:00 14.4 14 Oeste 28 Oeste 0 1012 -2.5 61
2019-12-12 15:00:00 15.2 18 Oeste 30 Oeste 0 1012.2 -3.2 62
2019-12-12 14:00:00 15.8 22 Oeste 37 Oeste 0 1013.2 -3.2 59
2019-12-12 13:00:00 16.2 26 Oeste 35 Oeste 0 1014.5 -2.1 56
2019-12-12 12:00:00 16.7 16 Oeste 28 Oeste 0 1015.4 -1 46
2019-12-12 11:00:00 15.7 16 Oeste 26 Oeste 0 1016.4 0 48
2019-12-12 10:00:00 14 13 Oeste 28 Oeste 0 1016.6 0.2 52
2019-12-12 09:00:00 13.3 15 Oeste 30 Oeste 0 1016.4 0 52
2019-12-12 08:00:00 12.2 14 Oeste 24 Oeste 0 1016.4 -0.4 57
2019-12-12 07:00:00 12 13 Oeste 22 Oeste 0 1016.4 -0.8 57
2019-12-12 06:00:00 12.6 11 Oeste 22 Noroeste 0 1016.4 -1.5 55
2019-12-12 05:00:00 13 13 Oeste 28 Oeste 0 1016.8 -1.2 52
2019-12-12 04:00:00 11.7 16 Sudoeste 24 Sudoeste 0 1017.2 -1.1 65
2019-12-12 03:00:00 11.4 9 Sudoeste 33 Noroeste 0 1017.9 -0.7 58
2019-12-12 02:00:00 12.6 14 Noroeste -- -- -- 1018 -0.3 56
2019-12-12 01:00:00 12.5 12 Oeste 24 Oeste 0 1018.3 0.3 56
2019-12-12 00:00:00 12.8 8 Oeste 24 Oeste 0 1018.6 1.4 56
2019-12-11 23:00:00 12.3 6 Nordeste 17 Norte 0 1018.3 1.9 72
2019-12-11 22:00:00 13 14 Norte 32 Norte 0 1018 2.2 67
2019-12-11 21:00:00 13.3 22 Norte 42 Noroeste 0 1017.2 2 66
2019-12-11 20:00:00 13.6 26 Noroeste 59 Noroeste 0 1016.4 2 62
2019-12-11 19:00:00 14.2 27 Noroeste 48 Noroeste 0 1015.8 1.5 64
2019-12-11 18:00:00 14.4 18 Noroeste 37 Noroeste 0 1015.2 0.5 64
2019-12-11 17:00:00 15 8 Noroeste 28 Oeste 0 1014.4 -0.5 64
2019-12-11 16:00:00 16 17 Oeste 33 Oeste 0 1014.3 -2.1 61
2019-12-11 15:00:00 15.8 23 Oeste 32 Sudoeste 0 1014.7 -3.1 70
2019-12-11 14:00:00 16.8 21 Sudoeste 28 Sudoeste 0 1014.9 -3.8 68
2019-12-11 13:00:00 16.4 10 Sudoeste 15 Sudoeste 0 1016.4 -2.6 75
2019-12-11 12:00:00 13.9 3 Sur 5 Sur 0 1017.8 -1.4 75
2019-12-11 11:00:00 10.4 3 Nordeste 5 Este 0 1018.7 -0.7 85
2019-12-11 10:00:00 7.7 4 Este 5 Este 0 1019 -0.8 90
2019-12-11 09:00:00 4 4 Norte 5 Norte 0 1019.2 -0.8 96
2019-12-11 08:00:00 3.5 4 Norte 5 Norte 0 1019.4 -1.5 96
2019-12-11 07:00:00 3.7 3 Norte 8 Norte 0 1019.8 -1.5 96
2019-12-11 06:00:00 3.9 4 Nordeste 8 Este 0 1020 -1.5 96
2019-12-11 05:00:00 3.6 4 Nordeste 9 Este 0 1020.9 -1.1 95
2019-12-11 04:00:00 4.3 3 Norte 8 Norte 0 1021.3 -1.3 95
2019-12-11 03:00:00 4 4 Nordeste 8 Nordeste 0 1021.5 -1.3 95
2019-12-11 02:00:00 5.1 4 Nordeste -- -- -- 1022 -0.6 95
2019-12-11 01:00:00 5.5 6 Este 9 Este 0 1022.6 0 93
2019-12-11 00:00:00 6.2 4 Nordeste 9 Este 0 1022.8 0.1 93
2019-12-10 23:00:00 6.7 8 Este 11 Este 0 1022.6 -0.3 91
2019-12-10 22:00:00 8.3 3 Este 13 Este 0 1022.6 0.1 87
2019-12-10 21:00:00 11 8 Oeste 15 Sudoeste 0 1022.7 0.5 75
2019-12-10 20:00:00 11.3 8 Oeste 22 Noroeste 0 1022.9 0.8 72
2019-12-10 19:00:00 12.2 14 Noroeste 28 Noroeste 0 1022.5 0.3 69
2019-12-10 18:00:00 12.5 13 Noroeste 22 Noroeste 0 1022.2 0.1 61
2019-12-10 17:00:00 13.9 14 Sudoeste 24 Sudoeste 0 1022.1 -0.9 69
2019-12-10 16:00:00 14.7 16 Sudoeste 26 Oeste 0 1022.2 -1.6 62
2019-12-10 15:00:00 15.4 15 Sudoeste 22 Sudoeste 0 1022.1 -2.5 55
2019-12-10 14:00:00 15.7 13 Sudoeste 21 Sudoeste 0 1023 -2.1 54
2019-12-10 13:00:00 16 4 Sur 13 Sudoeste 0 1023.8 -0.9 52
2019-12-10 12:00:00 15.4 8 Sudeste 18 Este 0 1024.6 0.8 54
2019-12-10 11:00:00 14.1 14 Este 21 Este 0 1025.1 2.2 60
2019-12-10 10:00:00 13.2 6 Sudeste 21 Este 0 1024.7 2 64
2019-12-10 09:00:00 13.3 16 Norte 30 Norte 0 1023.8 1.5 56
2019-12-10 08:00:00 12.9 18 Noroeste 39 Noroeste 0 1022.9 0.2 63
2019-12-10 07:00:00 13 9 Norte 18 Norte 0 1022.7 0.3 62
2019-12-10 06:00:00 13.1 9 Norte 30 Norte 0 1022.3 -0.2 62
2019-12-10 05:00:00 12.6 8 Nordeste 17 Norte 0 1022.7 0.1 68
2019-12-10 04:00:00 12.7 8 Norte 30 Norte 0 1022.4 -0.3 65
2019-12-10 03:00:00 13.3 11 Norte 18 Norte 0 1022.5 -0.4 63
2019-12-10 02:00:00 13.7 3 Sudoeste 17 Noroeste 0 1022.6 -0.1 63
2019-12-10 01:00:00 13.8 8 Noroeste 18 Oeste 0 1022.7 0.1 61
2019-12-10 00:00:00 14.2 8 Sudoeste 30 Oeste 0 1022.9 1 58
2019-12-09 23:00:00 14.1 9 Sur 17 Sudoeste 0 1022.7 1 59
2019-12-09 22:00:00 14.2 5 Oeste 30 Noroeste 0 1022.6 1.8 58
2019-12-09 21:00:00 14.5 12 Noroeste 39 Norte 0 1021.9 2 58
2019-12-09 20:00:00 14.6 13 Norte 32 Noroeste 0 1021.7 2.2 60
2019-12-09 19:00:00 15 28 Noroeste 61 Noroeste 0 1020.8 1.6 58
2019-12-09 18:00:00 15.2 36 Noroeste 61 Noroeste 0 1019.9 1.1 52
2019-12-09 17:00:00 15.3 35 Noroeste 68 Noroeste 0 1019.5 0.3 55
2019-12-09 16:00:00 16.2 45 Noroeste 80 Noroeste 0 1019.2 -0.5 49
2019-12-09 15:00:00 16.3 49 Noroeste 82 Noroeste 0 1018.8 -2.3 48
2019-12-09 14:00:00 17.3 42 Noroeste 78 Noroeste 0 1019.2 -2.6 44
2019-12-09 13:00:00 17.8 40 Noroeste 72 Noroeste 0 1019.7 -1.6 41
2019-12-09 12:00:00 17.2 27 Oeste 48 Oeste 0 1021.1 1.2 45
2019-12-09 11:00:00 16.8 7 Oeste 39 Noroeste 0 1021.8 2.2 47
2019-12-09 10:00:00 15.5 10 Noroeste 50 Noroeste 0 1021.3 1.4 55
2019-12-09 09:00:00 14.2 27 Noroeste 48 Noroeste 0 1019.9 0.1 64
2019-12-09 08:00:00 13.3 15 Noroeste 33 Noroeste 0 1019.6 0 78
2019-12-09 07:00:00 13.3 13 Oeste 24 Noroeste 0 1019.9 0.1 75
2019-12-09 06:00:00 14.4 16 Noroeste 35 Oeste 0 1019.8 -0.5 71
2019-12-09 05:00:00 14.2 21 Noroeste 33 Noroeste 0 1019.6 -0.8 72
2019-12-09 04:00:00 11 6 Sudoeste 11 Sur 0 1019.8 -1.1 96
2019-12-09 03:00:00 10.6 3 Nordeste 8 Norte 0 1020.3 -0.5 96
2019-12-09 02:00:00 10.6 0 Calma 8 Norte 0 1020.4 -0.4 96
2019-12-09 01:00:00 10.1 6 Noroeste 9 Norte 0 1020.9 -0.4 97
2019-12-09 00:00:00 9.3 4 Noroeste 9 Norte 0 1020.8 -0.3 97
2019-12-08 23:00:00 8.7 0 Calma 5 Norte 0 1020.8 -0.4 96
2019-12-08 22:00:00 9.6 3 Nordeste 8 Norte 0 1021.3 0.2 95
2019-12-08 21:00:00 10.8 6 Norte 11 Noroeste 0 1021.1 0.1 92
2019-12-08 20:00:00 12.4 2 Norte 13 Oeste 0 1021.2 0.3 91
2019-12-08 19:00:00 13.9 12 Oeste 17 Oeste 0 1021.1 0.2 85
2019-12-08 18:00:00 14.1 13 Oeste 26 Oeste 0 1021 0.2 83
2019-12-08 17:00:00 14.8 24 Sudoeste 35 Sudoeste 0 1020.9 -0.4 79
2019-12-08 16:00:00 15.9 26 Sudoeste 33 Sudoeste 0 1020.9 -1.2 74
2019-12-08 15:00:00 16.4 27 Sudoeste 32 Sudoeste 0 1020.8 -2.2 75
2019-12-08 14:00:00 16.5 21 Sudoeste 28 Sudoeste 0 1021.3 -2.2 75
2019-12-08 13:00:00 16.2 14 Sudoeste 21 Sudoeste 0 1022.1 -1.4 76
2019-12-08 12:00:00 13.6 7 Sur 15 Sur 0 1023 -0.1 96
2019-12-08 11:00:00 11.2 4 Este 8 Este 0 1023.5 0.8 97
2019-12-08 10:00:00 9.9 0 Calma 5 Norte 0 1023.5 1 98
2019-12-08 09:00:00 7.2 3 Noroeste 9 Norte 0 1023.1 0.7 98
2019-12-08 08:00:00 6.2 6 Norte 9 Norte 0 1022.7 0.4 98
2019-12-08 07:00:00 7.4 3 Nordeste 8 Norte 0 1022.5 -0.2 98
2019-12-08 06:00:00 6.2 3 Norte 8 Norte 0 1022.4 -0.6 98
2019-12-08 05:00:00 5.4 5 Nordeste 5 Este 0 1022.3 -0.8 98
2019-12-08 04:00:00 5.8 4 Este 9 Noroeste 0 1022.7 -0.8 98
2019-12-08 03:00:00 6.3 4 Noroeste 11 Noroeste 0 1023 -0.7 98
2019-12-08 02:00:00 6.3 6 Norte 8 Norte 0 1023.1 -0.4 98
2019-12-08 01:00:00 7 0 Calma 8 Norte 0 1023.5 0.4 98
2019-12-08 00:00:00 7.4 3 Este 9 Este 0 1023.7 0.9 97
2019-12-07 23:00:00 8.3 5 Este 8 Este 0 1023.5 0.7 97
2019-12-07 22:00:00 8.6 4 Norte 8 Norte 0 1023.1 0.6 97
2019-12-07 21:00:00 9.3 4 Nordeste 5 Nordeste 0 1022.8 0.7 96
2019-12-07 20:00:00 10.8 5 Norte 8 Norte 0 1022.8 0.8 96
2019-12-07 19:00:00 11.3 5 Norte 8 Norte 0 1022.5 0.7 95
2019-12-07 18:00:00 12.7 5 Este -- -- 0 1022.1 0.4 93
2019-12-07 17:00:00 13.9 3 Sudeste 11 Sudoeste 0 1022 0.1 87
2019-12-07 16:00:00 14.8 9 Sudoeste 11 Sudoeste 0 1021.8 -1 83
2019-12-07 15:00:00 16.7 2 Sudeste 8 Sur 0 1021.7 -1.7 73
2019-12-07 14:00:00 15.8 3 Nordeste 5 Este 0 1021.9 -2 76
2019-12-07 13:00:00 12.7 3 Este 8 Este 0 1022.8 -0.6 94
2019-12-07 12:00:00 10.6 3 Norte 5 Norte 0 1023.4 0.4 97
2019-12-07 11:00:00 9.1 0 Calma 8 Norte 0 1023.9 1.3 98
2019-12-07 10:00:00 8.1 6 Sudeste 9 Este 0 1023.4 1 98
2019-12-07 09:00:00 7.3 9 Norte 13 Norte 0 1023 0.7 98
2019-12-07 08:00:00 7 3 Norte 9 Norte 0 1022.6 0 98
2019-12-07 07:00:00 7.3 4 Nordeste 9 Nordeste 0 1022.4 -0.5 98
2019-12-07 06:00:00 7.5 7 Nordeste 8 Este 0 1022.3 -0.6 98
2019-12-07 05:00:00 7.4 5 Norte 8 Nordeste 0 1022.6 0.1 98
2019-12-07 04:00:00 7.8 3 Sudeste 8 Norte 0 1022.9 0.5 98
2019-12-07 03:00:00 7.5 4 Norte 8 Nordeste 0 1022.9 0 97
2019-12-07 02:00:00 9.1 4 Este -- -- 0 1022.5 -0.6 97
2019-12-07 01:00:00 9.6 3 Norte 8 Norte 0 1022.4 -0.5 97
2019-12-07 00:00:00 10 5 Norte 11 Norte 0 1022.9 -0.1 96
2019-12-06 23:00:00 10.5 5 Norte 11 Norte 0 1023.1 0.4 96
2019-12-06 22:00:00 11.6 5 Nordeste 11 Norte 0 1022.9 0.8 94
2019-12-06 21:00:00 12.3 8 Noroeste 15 Este 0 1023 1.3 91
2019-12-06 20:00:00 13 6 Este 9 Este 0 1022.7 1.5 90
2019-12-06 19:00:00 13.7 7 Este 11 Nordeste 0 1022.1 0.9 89
2019-12-06 18:00:00 14.2 3 Norte 11 Sudoeste 0 1021.7 0.5 89
2019-12-06 17:00:00 16.1 8 Sudoeste 11 Sudoeste 0 1021.2 -0.5 80
2019-12-06 16:00:00 17.2 10 Sudoeste 15 Sudoeste 0 1021.2 -0.9 73
2019-12-06 15:00:00 18.4 7 Este 11 Este 0 1021.2 -1.6 62
2019-12-06 14:00:00 18.2 5 Este 11 Nordeste 0 1021.7 -1.6 59
2019-12-06 13:00:00 17.1 6 Nordeste 15 Nordeste 0 1022.1 -1.1 71
2019-12-06 12:00:00 16.3 5 Este 9 Nordeste 0 1022.8 0.4 79
2019-12-06 11:00:00 13.9 3 Este 8 Nordeste 0 1023.3 1.3 87
2019-12-06 10:00:00 12 0 Calma 8 Norte 0 1023.2 1.3 94
2019-12-06 09:00:00 10.4 4 Nordeste 11 Norte 0 1022.4 1.3 96
2019-12-06 08:00:00 9.5 4 Noroeste 11 Norte 0 1022 0.8 97
2019-12-06 07:00:00 9.5 0 Calma 8 Este 0 1021.9 0.9 97
2019-12-06 06:00:00 9.3 5 Norte 9 Norte 0 1021.1 0 97
2019-12-06 05:00:00 8.7 3 Norte 5 Noroeste 0 1021.2 0.3 97
2019-12-06 04:00:00 8.9 3 Nordeste -- -- 0 1021 0.1 97
2019-12-06 03:00:00 8.8 4 Norte 8 Norte 0 1021.1 -0.3 97
2019-12-06 02:00:00 8.4 3 Nordeste 5 Nordeste 0 1020.9 0.2 97
2019-12-06 01:00:00 9.2 4 Norte 9 Nordeste 0 1020.9 0.5 97
2019-12-06 00:00:00 9.1 4 Nordeste 9 Norte 0 1021.4 1.4 97
2019-12-05 23:00:00 9.2 3 Norte 8 Norte 0 1020.7 1.1 96
2019-12-05 22:00:00 9.8 5 Norte 9 Norte 0 1020.4 1.7 96
2019-12-05 21:00:00 9.9 6 Nordeste 9 Norte 0 1020 1.9 95
2019-12-05 20:00:00 11.3 2 Sur 9 Nordeste 0 1019.6 2.2 95
2019-12-05 19:00:00 12.3 6 Nordeste 11 Sur 0 1018.7 1.9 93
2019-12-05 18:00:00 14 2 Sur 15 Sur 0 1018.1 1.8 86
2019-12-05 17:00:00 16 6 Sur 18 Sudoeste 0 1017.4 1.3 76
2019-12-05 16:00:00 16.9 7 Sudoeste 17 Sudoeste 0 1016.8 1.1 70
2019-12-05 15:00:00 16.8 12 Sudoeste 22 Sudoeste 0 1016.3 0.5 74
2019-12-05 14:00:00 17.1 15 Sudoeste 24 Sudoeste 0 1016.1 0.4 73
2019-12-05 13:00:00 16.8 13 Sudoeste 18 Sudoeste 0 1015.7 0.6 74
2019-12-05 12:00:00 16.4 5 Sudoeste 9 Sudoeste 0 1015.8 1.7 75
2019-12-05 11:00:00 13.5 3 Norte 5 Norte 0 1015.7 2.2 82
2019-12-05 10:00:00 10.2 3 Nordeste 8 Norte 0 1015.1 2.6 94
2019-12-05 09:00:00 7.3 0 Calma 5 Norte 0 1014.1 2.4 97
2019-12-05 08:00:00 6.1 2 Nordeste 8 Nordeste 0 1013.5 2.4 97
2019-12-05 07:00:00 6.3 4 Nordeste 5 Nordeste 0 1012.5 1.6 97
2019-12-05 06:00:00 6.7 2 Norte 9 Sudoeste 0 1011.7 1.1 97
2019-12-05 05:00:00 7 6 Nordeste 9 Nordeste 0 1011.1 1.4 97
2019-12-05 04:00:00 7 0 Calma -- -- 0 1010.9 1.6 96
2019-12-05 03:00:00 7.3 4 Nordeste 9 Este 0 1010.6 1.6 96
2019-12-05 02:00:00 8 2 Este 11 Norte 0 1009.7 1.2 94
2019-12-05 01:00:00 8.4 8 Norte 9 Norte 0 1009.3 1.6 94
2019-12-05 00:00:00 8.5 3 Oeste 11 Norte 0 1009 1.8 94
2019-12-04 23:00:00 9 4 Norte 11 Noroeste 0 1008.5 1.7 93
2019-12-04 22:00:00 10.3 9 Este 13 Este 0 1007.7 2 95
2019-12-04 21:00:00 9.9 5 Nordeste 11 Norte 0 1007.2 1.9 96
2019-12-04 20:00:00 9.9 5 Nordeste 8 Nordeste 0 1006.8 2.5 95
2019-12-04 19:00:00 10.2 3 Norte 11 Este 0 1005.7 2 93
2019-12-04 18:00:00 11.3 11 Este 17 Este 0.2 1005.3 1.7 91
2019-12-04 17:00:00 12 10 Nordeste 22 Este 0 1004.3 1.2 87
2019-12-04 16:00:00 11.8 16 Nordeste 37 Este 0 1003.7 0.3 87
2019-12-04 15:00:00 11.3 26 Este 37 Este 0.2 1003.6 0.2 90
2019-12-04 14:00:00 11.5 15 Este 22 Nordeste 1.8 1003.1 -0.8 90
2019-12-04 13:00:00 11.3 10 Este 26 Norte 0.8 1003.4 -0.8 92
2019-12-04 12:00:00 10.9 13 Norte 26 Nordeste 10.4 1003.4 0.3 96
2019-12-04 11:00:00 11.9 10 Norte 33 Este 18.8 1003.9 1.6 89
2019-12-04 10:00:00 13.2 17 Este 33 Este 1.2 1004.2 0.9 90
2019-12-04 09:00:00 12.5 12 Nordeste 41 Este 0 1003.1 -0.1 86
2019-12-04 08:00:00 13.8 16 Este 35 Este 0 1002.3 -1.7 84
2019-12-04 07:00:00 14.8 22 Este 32 Nordeste 0.2 1003.3 -0.5 85
2019-12-04 06:00:00 12.9 16 Este 42 Este 1.2 1003.2 -2.3 90
2019-12-04 05:00:00 13.2 26 Este 42 Este 8.4 1004 -1.5 95
2019-12-04 04:00:00 12.3 21 Nordeste 35 Nordeste 1.8 1003.8 -3.4 87
2019-12-04 03:00:00 11.4 14 Este 46 Sur 10.7 1005.5 -2.9 88
2019-12-04 02:00:00 15.7 27 Este 54 Este 2 1005.5 -3.7 88
2019-12-04 01:00:00 15.8 23 Este 48 Este 5.6 1007.2 -2.8 87
2019-12-04 00:00:00 15.3 28 Nordeste 41 Nordeste 1.3 1008.4 -2.2 92
2019-12-03 23:00:00 14.8 15 Nordeste 42 Nordeste 7.7 1009.2 -1.7 95
2019-12-03 22:00:00 15.4 26 Nordeste 39 Nordeste 0 1010 -0.5 88
2019-12-03 21:00:00 15.8 23 Este 39 Este 0 1010.6 0.2 81
2019-12-03 20:00:00 15.3 21 Nordeste 41 Nordeste 0 1010.9 0 81
2019-12-03 19:00:00 14.8 22 Nordeste 35 Nordeste 0 1010.5 -0.7 75
2019-12-03 18:00:00 14.2 23 Nordeste 35 Nordeste 0 1010.4 -1 79
2019-12-03 17:00:00 14.1 25 Este 46 Este 0 1010.9 -1.9 77
2019-12-03 16:00:00 14.5 30 Nordeste 55 Nordeste 0 1011.2 -3 74
2019-12-03 15:00:00 14.8 32 Nordeste 58 Este 0 1011.4 -3.8 74
2019-12-03 14:00:00 14.6 24 Nordeste 46 Este 0 1012.8 -2.8 72
2019-12-03 13:00:00 14.1 22 Nordeste 39 Nordeste 0 1014.2 -1.5 68
2019-12-03 12:00:00 13.5 23 Nordeste 48 Este 0 1015.2 -0.7 67
2019-12-03 11:00:00 13 33 Nordeste 48 Nordeste 0 1015.6 0.1 70
2019-12-03 10:00:00 13.3 30 Nordeste 41 Nordeste 0 1015.7 0.9 67
2019-12-03 09:00:00 12.4 28 Nordeste 46 Nordeste 0 1015.9 1.4 70
2019-12-03 08:00:00 12.1 14 Nordeste 39 Nordeste 0 1015.5 0.6 71
2019-12-03 07:00:00 12 27 Nordeste 54 Nordeste 0 1014.8 -0.6 71
2019-12-03 06:00:00 12.2 38 Este 52 Este 0 1014.5 -1.1 70
2019-12-03 05:00:00 12.2 27 Nordeste 42 Este 0 1014.9 -0.6 73
2019-12-03 04:00:00 12.4 22 Nordeste 42 Este 0 1015.4 -0.7 74
2019-12-03 03:00:00 12.8 29 Nordeste 42 Nordeste 0 1015.6 -0.5 72
2019-12-03 02:00:00 13.1 30 Nordeste 45 Nordeste 0 1015.5 -0.6 70
2019-12-03 01:00:00 13.1 24 Nordeste 35 Nordeste 0 1016.1 0.1 73
2019-12-03 00:00:00 13.2 20 Nordeste 39 Nordeste 0 1016.1 -0.1 70
2019-12-02 23:00:00 13.3 21 Nordeste 33 Este 0 1016.1 0.3 72
2019-12-02 22:00:00 13.1 22 Nordeste 33 Nordeste 0 1016 1 74
2019-12-02 21:00:00 12.9 19 Nordeste 32 Nordeste 0 1016.2 1.7 75
2019-12-02 20:00:00 12.8 21 Nordeste 33 Nordeste 0 1015.8 1.5 75
2019-12-02 19:00:00 12.9 21 Este 41 Nordeste 0 1015 0.8 75
2019-12-02 18:00:00 13.3 26 Nordeste 42 Nordeste 0 1014.5 0.6 73
2019-12-02 17:00:00 14.1 28 Nordeste 52 Nordeste 0 1014.3 0.1 71
2019-12-02 16:00:00 14.7 38 Este 54 Nordeste 0 1014.2 -0.2 69
2019-12-02 15:00:00 15.2 38 Este 58 Este 0 1013.9 -0.9 69
2019-12-02 14:00:00 15.4 39 Este 52 Este 0 1014.2 -0.7 70
2019-12-02 13:00:00 15 30 Este 45 Este 0 1014.4 0.5 74
2019-12-02 12:00:00 14.5 31 Nordeste 46 Nordeste 0 1014.8 1.1 79
2019-12-02 11:00:00 14.6 27 Este 41 Nordeste 0 1014.9 2 81
2019-12-02 10:00:00 13.9 23 Este 33 Este 0 1013.9 1.9 84
2019-12-02 09:00:00 13.6 22 Este 35 Este 0 1013.7 1.9 88
2019-12-02 08:00:00 13.4 18 Este 37 Este 0 1012.9 1.4 92
2019-12-02 07:00:00 13.6 25 Este 33 Este 0 1012 0.5 91
2019-12-02 06:00:00 14 19 Nordeste 28 Nordeste 0.2 1011.8 0.5 91
2019-12-02 05:00:00 14.1 10 Nordeste 17 Nordeste 2.9 1011.5 0.2 95
2019-12-02 04:00:00 14.2 14 Nordeste 18 Nordeste 0 1011.5 0 92
2019-12-02 03:00:00 13.6 8 Este 13 Este 0 1011.3 -0.7 93
2019-12-02 02:00:00 13.7 8 Nordeste 18 Este 0 1011.3 -0.7 92
2019-12-02 01:00:00 13.8 12 Este 15 Este 0 1011.5 0 92
2019-12-02 00:00:00 14 9 Este 13 Este 0 1012 0.5 91
2019-12-01 23:00:00 13.8 11 Este 15 Este 0 1012 0.6 94
2019-12-01 22:00:00 13.3 9 Este 13 Este 0 1011.5 0.4 96
2019-12-01 21:00:00 12.9 2 Nordeste 11 Este 0 1011.5 0.8 96
2019-12-01 20:00:00 13.2 9 Nordeste 11 Este 0 1011.4 0.9 94
2019-12-01 19:00:00 15 4 Sudeste 11 Este 0 1011.1 0.5 89
2019-12-01 18:00:00 15.8 10 Sudoeste 21 Sudoeste 0 1010.7 0.3 88
2019-12-01 17:00:00 16.6 17 Sudoeste 28 Sudoeste 0 1010.5 -0.1 84
2019-12-01 16:00:00 17.6 19 Sudoeste 28 Sudoeste 0 1010.6 -0.3 81
2019-12-01 15:00:00 18.1 24 Sudoeste 32 Sudoeste 0 1010.4 -1.4 78
2019-12-01 14:00:00 18.4 23 Sudoeste 32 Sudoeste 0 1010.6 -1.7 77
2019-12-01 13:00:00 18.2 19 Sudoeste 28 Sudoeste 0 1010.9 -1.4 78
2019-12-01 12:00:00 18.1 22 Sudoeste 30 Sudoeste 0 1011.8 -0.2 78
2019-12-01 11:00:00 17.7 20 Sudoeste 28 Sudoeste 0 1012.3 0.4 79
2019-12-01 10:00:00 17.1 21 Sudoeste 26 Sudoeste 0 1012.3 0.5 84
2019-12-01 09:00:00 15.9 18 Sudoeste 26 Sudoeste 0 1012 0.1 90
2019-12-01 08:00:00 15.9 13 Sudoeste 18 Sudoeste 0 1011.9 -0.4 88
2019-12-01 07:00:00 15.9 12 Sudoeste 21 Sur 0 1011.8 -0.9 87
2019-12-01 06:00:00 15.9 11 Sudoeste 17 Sudoeste 0 1011.9 -1.4 84
2019-12-01 05:00:00 15.9 13 Sudoeste 18 Sudoeste 0 1012.3 -1.6 82
2019-12-01 04:00:00 15.7 11 Sudoeste 22 Sudoeste 0 1012.7 -1.8 83
2019-12-01 03:00:00 16.1 17 Sudoeste 26 Sudoeste 0 1013.3 -1.6 86
2019-12-01 02:00:00 16.3 14 Sudoeste 21 Sudoeste 0 1013.9 -1.2 88
2019-12-01 01:00:00 14.5 2 Sudeste 9 Sudeste 0 1014.5 -1.2 94
2019-12-01 00:00:00 15.6 8 Sur 17 Sudoeste 0 1014.9 -1.1 92
2019-11-30 23:00:00 15.4 6 Sudoeste 15 Sudoeste 0 1015.1 -1 92
2019-11-30 22:00:00 16.1 12 Sudoeste 21 Sudoeste 0 1015.7 -0.4 91
2019-11-30 21:00:00 16.3 12 Sudoeste 18 Sudoeste 0 1016 -0.4 89
2019-11-30 20:00:00 16.4 11 Sudoeste 18 Sudoeste 0 1016.1 -0.4 87
2019-11-30 19:00:00 16.5 11 Sudoeste 24 Sudoeste 0 1016.1 -0.9 84
2019-11-30 18:00:00 16.5 13 Sudoeste 21 Sudoeste 0 1016.4 -1.2 87
2019-11-30 17:00:00 16.9 12 Sudoeste 22 Sudoeste 0 1016.5 -1.5 86
2019-11-30 16:00:00 18.1 15 Sudoeste 22 Sudoeste 0 1017 -1.9 81
2019-11-30 15:00:00 18.1 16 Sudoeste 26 Sudoeste 0 1017.6 -2.3 81
2019-11-30 14:00:00 18.3 16 Sudoeste 22 Sudoeste 0 1018 -2.3 79
2019-11-30 13:00:00 18.2 13 Sudoeste 21 Sudoeste 0 1018.9 -1.4 80
2019-11-30 12:00:00 17.5 4 Sudoeste 9 Sudoeste 0 1019.9 -0.4 81
2019-11-30 11:00:00 14.8 4 Norte 5 Norte 0 1020.3 0 91
2019-11-30 10:00:00 12.8 2 Norte 5 Norte 0 1020.3 0.2 98
2019-11-30 09:00:00 11.1 4 Noroeste 8 Nordeste 0 1020.3 0.5 98
2019-11-30 08:00:00 9.9 5 Nordeste 8 Norte 0 1020.3 -0.1 98
2019-11-30 07:00:00 9.6 2 Norte 5 Norte 0 1020.1 -0.3 98
2019-11-30 06:00:00 9.2 5 Nordeste 8 Nordeste 0 1019.8 -0.9 97
2019-11-30 05:00:00 9.1 4 Nordeste 8 Este 0 1020.4 -0.3 97
2019-11-30 04:00:00 9.4 0 Calma 5 Norte 0 1020.4 -0.3 97
2019-11-30 03:00:00 10.3 3 Norte -- -- 0 1020.7 -0.4 97
2019-11-30 02:00:00 10.1 2 Noroeste 5 Noroeste 0 1020.7 -0.3 97
2019-11-30 01:00:00 10 6 Nordeste 8 Nordeste 0 1020.7 0.1 97
2019-11-30 00:00:00 9.9 5 Norte 5 Norte 0 1021.1 0.9 97
2019-11-29 23:00:00 10.3 -- -- -- -- 0 1021 1.1 97
2019-11-29 22:00:00 10.9 3 Noroeste 9 Nordeste 0 1020.6 1 96
2019-11-29 21:00:00 11 6 Nordeste 9 Este 0 1020.2 1.2 95
2019-11-29 20:00:00 12.2 5 Este 11 Este 0 1019.9 1.4 95
2019-11-29 19:00:00 13.5 5 Este 8 Nordeste 0 1019.6 1.6 94
2019-11-29 18:00:00 15.1 3 Este 15 Sudoeste 0 1019 1.4 88
2019-11-29 17:00:00 17.7 6 Sur 11 Sur 0 1018.5 0.7 80
2019-11-29 16:00:00 18 6 Sur 21 Sur 0 1018 0 80
2019-11-29 15:00:00 18.8 13 Sudoeste 26 Sudoeste 0 1017.6 -0.6 72
2019-11-29 14:00:00 18.9 17 Sudoeste 26 Sudoeste 0 1017.8 -0.2 75
2019-11-29 13:00:00 19 12 Sudoeste 18 Sudoeste 0 1018 0.9 75
2019-11-29 12:00:00 18.4 13 Sudoeste 18 Sudoeste 0 1018.2 1.5 75
2019-11-29 11:00:00 16.7 5 Oeste 8 Oeste 0 1018 2.3 81
2019-11-29 10:00:00 12.1 5 Este 9 Este 0 1017.1 1.9 94
2019-11-29 09:00:00 10.2 5 Nordeste 9 Este 0 1016.7 2.1 94
2019-11-29 08:00:00 10 3 Nordeste 9 Norte 0 1015.7 1.3 92
2019-11-29 07:00:00 11.3 3 Sudoeste -- -- 0 1015.2 0.8 92
2019-11-29 06:00:00 11.6 7 Norte 17 Oeste 0 1014.6 -0.1 87
2019-11-29 05:00:00 13.9 13 Sudoeste 22 Sudoeste 0 1014.4 -0.3 87
2019-11-29 04:00:00 14.2 16 Sudoeste 21 Sudoeste 0 1014.4 -0.4 83
2019-11-29 03:00:00 13.1 13 Sudoeste 24 Oeste 0 1014.7 -0.7 86
2019-11-29 02:00:00 14.2 12 Sudoeste 17 Sudoeste 0 1014.7 -0.9 79
2019-11-29 01:00:00 11.1 4 Oeste 11 Oeste 0 1014.8 -0.9 95
2019-11-29 00:00:00 10 9 Este 11 Este 0 1015.4 0.2 94
2019-11-28 23:00:00 10.9 2 Sudeste 9 Norte 0 1015.6 0.1 91
2019-11-28 22:00:00 11.5 5 Noroeste 11 Noroeste 0 1015.7 0.3 92
2019-11-28 21:00:00 13.1 3 Sudoeste 9 Oeste 0 1015.2 0.1 89
2019-11-28 20:00:00 14.8 10 Oeste 21 Sudoeste 0 1015.5 0.6 83
2019-11-28 19:00:00 15.5 16 Sudoeste 32 Sudoeste 0 1015.4 1.1 79
2019-11-28 18:00:00 15.9 21 Sudoeste 33 Sudoeste 0 1015.1 1 77
2019-11-28 17:00:00 16.3 16 Sudoeste 30 Oeste 0 1014.9 0.5 74
2019-11-28 16:00:00 17.1 25 Oeste 37 Oeste 0 1014.3 -0.1 73
2019-11-28 15:00:00 17.6 30 Oeste 41 Sudoeste 0 1014.1 -0.9 72
2019-11-28 14:00:00 18.5 30 Sudoeste 39 Sudoeste 0 1014.4 -0.6 71
2019-11-28 13:00:00 19.3 25 Sudoeste 30 Sudoeste 0 1014.4 0 64
2019-11-28 12:00:00 18.9 22 Oeste 32 Oeste 0 1015 1.2 64
2019-11-28 11:00:00 18 20 Oeste 28 Oeste 0 1015 1.7 66
2019-11-28 10:00:00 13.8 4 Este 11 Este 0 1014.4 1.9 83
2019-11-28 09:00:00 9.7 6 Este 11 Sudeste 0 1013.8 1.9 92
2019-11-28 08:00:00 8.1 8 Este 18 Este 0 1013.3 1.9 93
2019-11-28 07:00:00 8.4 7 Este 13 Este 0 1012.5 1.6 94
2019-11-28 06:00:00 7.4 3 Nordeste 11 Este 0 1011.9 1.1 95
2019-11-28 05:00:00 7.7 6 Este 8 Nordeste 0 1011.4 1.1 94
2019-11-28 04:00:00 8.9 4 Nordeste -- -- 0 1010.9 0.4 94
2019-11-28 03:00:00 10 5 Norte 13 Norte 0 1010.8 -0.1 91
2019-11-28 02:00:00 9.4 5 Nordeste 11 Este 0 1010.3 -0.6 91
2019-11-28 01:00:00 10 8 Este 13 Este 0 1010.5 -0.6 90
2019-11-28 00:00:00 12.3 3 Oeste 9 Noroeste 0 1010.9 -0.1 83
2019-11-27 23:00:00 11.6 3 Sudoeste 8 Oeste 0 1010.9 0.3 89
2019-11-27 22:00:00 12.7 2 Norte 18 Oeste 0 1011.1 0.7 84
2019-11-27 21:00:00 14.6 10 Sudoeste 17 Sudoeste 0 1011 1.3 80
2019-11-27 20:00:00 15.1 7 Oeste 15 Oeste 0 1010.6 1.7 81
2019-11-27 19:00:00 15.5 14 Oeste 17 Sudoeste 0 1010.4 1.4 81
2019-11-27 18:00:00 16.7 9 Oeste 22 Oeste 0 1009.7 1 73
2019-11-27 17:00:00 18.4 16 Oeste 30 Oeste 0 1008.9 0 65
2019-11-27 16:00:00 19.1 19 Oeste 30 Oeste 0 1009 -0.2 65
2019-11-27 15:00:00 19.9 13 Oeste 28 Oeste 0 1008.7 -0.9 59
2019-11-27 14:00:00 20.7 18 Noroeste 32 Noroeste 0 1008.9 -0.5 54
2019-11-27 06:00:00 16.6 17 Sudoeste 26 Sudoeste 0 1006.7 -0.7 89
2019-11-27 05:00:00 16.5 19 Sudoeste 33 Sudoeste 0 1007 -1.2 91
2019-11-27 04:00:00 16 19 Sudoeste 26 Oeste 0 1007.2 -1.3 93
2019-11-27 03:00:00 15.8 19 Sudoeste 24 Sudoeste 0 1007.4 -1.7 92
2019-11-27 02:00:00 16.8 17 Oeste 30 Sudoeste 0 1008.2 -1.1 90
2019-11-27 01:00:00 16.7 23 Sudoeste 33 Sudoeste 0 1008.5 -1.4 91
2019-11-27 00:00:00 16.5 19 Sudoeste 28 Sudoeste 0 1009.1 -1.3 91
2019-11-26 23:00:00 16 22 Sudoeste 35 Sudoeste 0 1009.3 -1.4 92
2019-11-26 22:00:00 16 24 Sudoeste 37 Sudoeste 0 1009.9 -0.3 91
2019-11-26 21:00:00 15.8 20 Sudoeste 28 Oeste 0 1010.4 0.3 90
2019-11-26 20:00:00 16 18 Oeste 33 Oeste 0 1010.7 0.4 89
2019-11-26 19:00:00 16 19 Sudoeste 26 Sudoeste 0 1010.2 -0.4 89
2019-11-26 18:00:00 16.4 17 Sudoeste 28 Sudoeste 0 1010.1 -0.4 87
2019-11-26 17:00:00 17.6 19 Sudoeste 30 Sudoeste 0 1010.3 -0.8 78
2019-11-26 16:00:00 18.3 26 Sudoeste 32 Sudoeste 0 1010.6 -1.2 70
2019-11-26 15:00:00 18.6 22 Sudoeste 30 Sudoeste 0 1010.5 -2.4 72
2019-11-26 14:00:00 18.4 21 Sudoeste 30 Sudoeste 0 1011.1 -2 76
2019-11-26 13:00:00 18 16 Sudoeste 24 Sudoeste 0 1011.8 -1.5 78
2019-11-26 12:00:00 18.2 16 Sudoeste 22 Sudoeste 0 1012.9 -0.3 80
2019-11-26 11:00:00 16.9 2 Nordeste 5 Norte 0 1013.1 -0.1 81
2019-11-26 10:00:00 13.1 3 Nordeste 5 Oeste 0 1013.3 0.3 85
2019-11-26 09:00:00 10.4 4 Nordeste 9 Este 0 1013.2 0.2 93
2019-11-26 08:00:00 8.4 5 Norte 8 Norte 0 1013.2 0 96
2019-11-26 07:00:00 7.2 5 Norte 5 Norte 0 1013 -0.2 96
2019-11-26 06:00:00 6.9 3 Nordeste 8 Norte 0 1013 -0.5 95
2019-11-26 05:00:00 7.3 5 Noroeste -- -- 0 1013.2 -0.6 95
2019-11-26 04:00:00 7.7 4 Este 8 Nordeste 0 1013.2 -1 95
2019-11-26 03:00:00 7.7 5 Este 9 Este 0 1013.5 -0.8 93
2019-11-26 02:00:00 8.1 3 Noroeste 8 Norte 0 1013.8 -0.4 94
2019-11-26 01:00:00 8.4 4 Norte -- -- 0 1014.2 0.3 93
2019-11-26 00:00:00 8.6 3 Este 8 Norte 0 1014.3 0.6 93
2019-11-25 23:00:00 9.5 4 Nordeste 8 Nordeste 0 1014.2 1 91
2019-11-25 22:00:00 9.8 4 Este 9 Este 0 1013.9 1.3 91
2019-11-25 21:00:00 10.7 6 Nordeste 9 Este 0 1013.7 1.7 88
2019-11-25 20:00:00 12.2 5 Nordeste 8 Este 0 1013.2 2 81
2019-11-25 19:00:00 14.6 4 Este 21 Noroeste 0 1012.6 1.8 70
2019-11-25 18:00:00 15.8 12 Oeste 26 Noroeste 0 1012 1.8 64
2019-11-25 17:00:00 17.3 18 Noroeste 30 Noroeste 0 1011.2 1.1 59
2019-11-25 16:00:00 19.5 13 Noroeste 28 Noroeste 0 1010.8 0.6 49
2019-11-25 15:00:00 19.9 15 Noroeste 26 Norte 0 1010.2 -0.9 47
2019-11-25 14:00:00 20 13 Noroeste 24 Oeste 0 1010.1 -1.5 45
2019-11-25 13:00:00 18.7 17 Oeste 32 Oeste 0 1010.2 -1.3 64
2019-11-25 12:00:00 18.4 15 Oeste 26 Oeste 0 1011.1 0.1 65
2019-11-25 11:00:00 16.8 11 Oeste 17 Oeste 0 1011.6 1 70
2019-11-25 10:00:00 15.5 8 Sur 21 Sur 0 1011.5 1.2 68
2019-11-25 09:00:00 14.2 0 Calma 18 Oeste 0 1011 0.9 72
2019-11-25 08:00:00 13.6 16 Oeste 22 Oeste 0 1010.6 0.7 70
2019-11-25 07:00:00 13.4 17 Oeste 26 Oeste 0 1010.3 0.3 72
2019-11-25 06:00:00 8.4 8 Oeste 13 Oeste 0 1010.1 -0.8 90
2019-11-25 05:00:00 7.2 5 Este 9 Este 0 1009.9 -1.2 90
2019-11-25 04:00:00 8.5 2 Este 13 Noroeste 0 1010 -1 81
2019-11-25 03:00:00 12.1 10 Oeste 18 Oeste 0 1010.9 -0.1 69
2019-11-25 02:00:00 12.5 14 Oeste 21 Oeste 0 1011.1 0.3 66
2019-11-25 01:00:00 12.2 8 Oeste 18 Oeste 0 1011 -0.1 66
2019-11-25 00:00:00 11.8 13 Sudoeste 22 Oeste 0 1011 -0.3 71
2019-11-24 23:00:00 12.1 12 Oeste 17 Oeste 0 1010.8 -0.5 71
2019-11-24 22:00:00 12.8 11 Oeste 18 Oeste 0 1011.1 0.4 68
2019-11-24 21:00:00 12.1 10 Oeste 22 Noroeste 0 1011.3 1 72
2019-11-24 20:00:00 12.9 10 Oeste 21 Noroeste 0 1011.3 1.6 68
2019-11-24 19:00:00 13.3 10 Oeste 22 Oeste 0 1010.7 1.5 66
2019-11-24 18:00:00 13.8 13 Oeste 30 Noroeste 0 1010.3 1.4 64
2019-11-24 17:00:00 14.5 13 Oeste 30 Noroeste 0 1009.7 1.5 64
2019-11-24 16:00:00 15.5 14 Noroeste 33 Noroeste 0 1009.2 1 59
2019-11-24 15:00:00 15.5 18 Noroeste 37 Noroeste 0 1008.9 0.3 57
2019-11-24 14:00:00 16.1 18 Noroeste 41 Norte 0 1008.2 -0.9 55
2019-11-24 13:00:00 16 26 Noroeste 48 Noroeste 0 1008.2 -0.4 55
2019-11-24 12:00:00 15.8 30 Noroeste 48 Noroeste 0 1008.6 1 54
2019-11-24 11:00:00 15.8 29 Noroeste 42 Noroeste 0 1009.1 2.1 55
2019-11-24 10:00:00 15.2 16 Noroeste 45 Noroeste 0 1008.6 2.7 54
2019-11-24 09:00:00 14.2 23 Noroeste 50 Noroeste 0 1007.6 2.6 57
2019-11-24 08:00:00 13.7 24 Noroeste 54 Noroeste 0 1007 2.6 60
2019-11-24 07:00:00 13.6 22 Noroeste 50 Noroeste 0 1005.9 1.7 59
2019-11-24 06:00:00 14 28 Noroeste 54 Norte 0 1005 1.4 57
2019-11-24 05:00:00 13.8 22 Noroeste 50 Oeste 0 1004.4 1.6 59
2019-11-24 04:00:00 14.1 21 Noroeste 41 Oeste 0 1004.2 1.3 57
2019-11-24 03:00:00 13.9 18 Oeste 37 Noroeste 0 1003.6 1.1 58
2019-11-24 02:00:00 14 25 Oeste 45 Noroeste 0 1002.8 0.8 58
2019-11-24 01:00:00 14.1 20 Noroeste 42 Oeste 0 1002.9 1.7 59
2019-11-24 00:00:00 14.1 20 Noroeste 39 Noroeste 0 1002.5 1.8 57
2019-11-23 23:00:00 14.4 20 Noroeste 50 Noroeste 0 1002 2.5 54
2019-11-23 22:00:00 14.8 33 Noroeste 61 Noroeste 0 1001.2 2.6 51
2019-11-23 21:00:00 14.8 24 Noroeste 68 Noroeste 0 1000.7 3.4 52
2019-11-23 20:00:00 15.2 18 Oeste 46 Noroeste 0 999.5 3.1 52
2019-11-23 19:00:00 14.7 27 Noroeste 46 Noroeste 0 998.6 2.9 54
2019-11-23 18:00:00 14.9 19 Oeste 39 Noroeste 0 997.3 2.4 55
2019-11-23 17:00:00 14.5 18 Oeste 54 Noroeste 0 996.4 1.8 58
2019-11-23 16:00:00 14.4 25 Noroeste 46 Noroeste 0 995.7 -- 61
2019-11-23 15:00:00 14.4 19 Noroeste 41 Oeste 0 994.9 2.2 71
2019-11-23 14:00:00 13.4 11 Oeste -- -- -- 994.6 1 80
2019-11-23 13:00:00 -- -- -- -- -- -- -- -- --
2019-11-23 12:00:00 16.9 18 Oeste 52 Oeste 0 992.7 0.4 62
2019-11-23 11:00:00 15.7 34 Oeste 58 Oeste 0 993.6 1.7 64
2019-11-23 10:00:00 15.7 32 Oeste 61 Oeste 0 993 1.1 64
2019-11-23 09:00:00 16.6 39 Oeste 58 Oeste 0 992.3 0.5 63
2019-11-23 08:00:00 16.2 24 Oeste 50 Oeste 0 991.9 -0.1 57
2019-11-23 07:00:00 16.7 32 Oeste 42 Oeste 0 991.9 -0.1 63
2019-11-23 06:00:00 16.1 28 Sudoeste 41 Sudoeste 0 991.8 -0.7 81
2019-11-23 05:00:00 16.7 28 Oeste 45 Oeste 0 992 -1 76
2019-11-23 04:00:00 16.9 31 Sudoeste 54 Sudoeste 0.2 992 -2.4 89
2019-11-23 03:00:00 17.3 39 Sudoeste 58 Sudoeste 0 992.5 -2.9 89
2019-11-23 02:00:00 17.1 36 Sudoeste 50 Sudoeste 0 993 -3 88
2019-11-23 01:00:00 16.4 35 Sudoeste 58 Sudoeste 1.5 994.4 -3 90
2019-11-23 00:00:00 16.3 38 Sudoeste 65 Sur 1.5 995.4 -3.3 92
2019-11-22 23:00:00 16.2 44 Sudoeste 67 Sudoeste 4.8 996 -3.5 92
2019-11-22 22:00:00 15.5 40 Sur 59 Sudoeste 3 997.4 -2.7 92
2019-11-22 21:00:00 16.4 40 Sudoeste 58 Sur 0.6 998.7 -2 83
2019-11-22 20:00:00 17 29 Sur 42 Sur 0 999.5 -1.4 82
2019-11-22 19:00:00 16.9 32 Sur 50 Sur 0.1 1000.1 -1.2 80
2019-11-22 18:00:00 17 30 Sur 41 Sur 0 1000.7 -1.2 83
2019-11-22 17:00:00 16.9 24 Sudoeste 39 Sudoeste 0 1000.9 -1.9 82
2019-11-22 16:00:00 17.3 29 Sudoeste 46 Sudoeste 0 1001.3 -2.5 81
2019-11-22 15:00:00 17.3 30 Sudoeste 46 Sudoeste 0 1001.9 -3.1 81
2019-11-22 14:00:00 17.6 31 Sudoeste 45 Sudoeste 0 1002.8 -3.1 81
2019-11-22 13:00:00 17.3 30 Sudoeste 45 Sudoeste 0 1003.8 -2.4 83
2019-11-22 12:00:00 17.1 31 Sudoeste 42 Sudoeste 0 1005 -1.4 82
2019-11-22 11:00:00 14.6 5 Nordeste 17 Este 0 1005.9 -0.3 94
2019-11-22 10:00:00 13.1 10 Este 30 Este 3.4 1006.2 -0.2 97
2019-11-22 09:00:00 12.6 11 Nordeste 17 Nordeste 4.2 1006.4 0 98
2019-11-22 08:00:00 11.6 8 Este -- -- 1.1 1006.2 -0.4 97
2019-11-22 07:00:00 12 -- -- -- -- 0 1006.4 -0.7 97
2019-11-22 06:00:00 11.7 0 Calma 11 Este 0 1006.4 -1.2 97
2019-11-22 05:00:00 11.5 7 Este 9 Este 0.6 1006.6 -1.5 95
2019-11-22 04:00:00 10.3 5 Este -- -- 0 1007.1 -1.4 95
2019-11-22 03:00:00 9.9 -- -- -- -- 0 1007.6 -1.2 94
2019-11-22 02:00:00 10 3 Norte 5 Norte 0 1008.1 -0.8 93
2019-11-22 01:00:00 9.9 4 Noroeste 8 Norte 0 1008.5 -0.6 92
2019-11-22 00:00:00 10 6 Norte 9 Noroeste 0 1008.8 -0.5 91
2019-11-21 23:00:00 10.5 4 Norte 9 Nordeste 0 1008.9 -0.2 88
2019-11-21 22:00:00 10.5 6 Este 11 Este 0 1009.1 0.3 89
2019-11-21 21:00:00 10.7 2 Norte 9 Nordeste 0 1009.3 0.8 88
2019-11-21 20:00:00 10.7 6 Nordeste 9 Este 0 1009.1 0.9 88
2019-11-21 19:00:00 12.4 4 Norte 15 Oeste 0 1008.8 0.7 78
2019-11-21 18:00:00 13.8 9 Oeste 17 Oeste 0 1008.5 0.6 72
2019-11-21 17:00:00 14.6 11 Oeste 26 Oeste 0 1008.2 0.4 67
2019-11-21 16:00:00 15 20 Oeste 39 Sudoeste 0 1008.1 -0.1 63
2019-11-21 15:00:00 15.7 31 Oeste 45 Sudoeste 0 1007.9 -0.8 62
2019-11-21 14:00:00 16.4 28 Oeste 41 Oeste 0 1007.8 -1 58
2019-11-21 13:00:00 15.6 25 Oeste 39 Oeste 0 1008.2 -0.4 66
2019-11-21 12:00:00 16.1 25 Oeste 37 Oeste 0 1008.7 0.2 63
2019-11-21 11:00:00 15.1 21 Oeste 30 Oeste 0 1008.8 0.6 69
2019-11-21 10:00:00 11.6 5 Nordeste 8 Nordeste 0 1008.6 0.6 90
2019-11-21 09:00:00 9.4 3 Este 9 Norte 0 1008.5 0.7 96
2019-11-21 08:00:00 8.3 5 Norte 9 Noroeste 0 1008.2 0.3 97
2019-11-21 07:00:00 8.7 3 Noroeste 9 Noroeste 0 1008 -0.1 96
2019-11-21 06:00:00 10.1 6 Norte 11 Nordeste 0 1007.8 -0.3 96
2019-11-21 05:00:00 10.3 10 Nordeste 13 Norte 0.7 1007.9 -0.5 96
2019-11-21 04:00:00 9.8 3 Nordeste 17 Sudeste 1.7 1008.1 -0.9 96
2019-11-21 03:00:00 9.1 7 Sur 13 Sur 0.3 1008.1 -1.4 96
2019-11-21 02:00:00 8.5 5 Norte 15 Este 0 1008.4 -1.5 96
2019-11-21 01:00:00 8.9 12 Este 17 Sudeste 0.5 1009 -1.1 95
2019-11-21 00:00:00 7.9 3 Nordeste 9 Norte 0 1009.5 -0.6 96
2019-11-20 23:00:00 8.3 8 Norte 9 Noroeste 0 1009.9 -0.3 96
2019-11-20 22:00:00 8.7 4 Norte 8 Norte 0 1010.1 0 95
2019-11-20 21:00:00 9.9 5 Norte 11 Este 0 1010.1 0.2 92
2019-11-20 20:00:00 11.5 5 Nordeste 11 Este 0 1010.2 0.2 88
2019-11-20 19:00:00 12.1 3 Nordeste 11 Sudeste 0 1010.1 -0.2 85
2019-11-20 18:00:00 12.8 6 Este 17 Nordeste 0 1009.9 -0.7 81
2019-11-20 17:00:00 13.7 9 Este 13 Sudeste 0 1010 -1.1 80
2019-11-20 16:00:00 14.2 8 Este 17 Sudeste 0 1010.3 -1.6 75
2019-11-20 15:00:00 14.5 12 Sudeste 17 Este 0 1010.6 -2.1 72
2019-11-20 14:00:00 14.4 11 Sudeste 15 Sur 0 1011.1 -2.2 60
2019-11-20 13:00:00 14.2 5 Este 11 Nordeste 0 1011.9 -1.6 62
2019-11-20 12:00:00 13.2 8 Nordeste 13 Este 0 1012.7 -0.8 64
2019-11-20 11:00:00 11.1 4 Nordeste 8 Nordeste 0 1013.3 -0.2 76
2019-11-20 10:00:00 8.6 2 Norte 8 Norte 0 1013.5 0.2 86
2019-11-20 09:00:00 6.2 4 Norte 8 Norte 0 1013.5 0.1 88
2019-11-20 08:00:00 4.7 4 Norte 11 Norte 0 1013.5 -0.3 93
2019-11-20 07:00:00 4.2 4 Norte 5 Norte 0 1013.3 -0.9 94
2019-11-20 06:00:00 4.2 4 Norte 9 Norte 0 1013.4 -1.2 93
2019-11-20 05:00:00 4.8 4 Norte 8 Norte 0 1013.8 -1 92
2019-11-20 04:00:00 4.6 6 Norte 8 Norte 0 1014.2 -0.9 92
2019-11-20 03:00:00 4.6 8 Norte -- -- 0 1014.6 -0.9 90
2019-11-20 02:00:00 4.8 5 Norte 8 Noroeste 0 1014.8 -1.2 92
2019-11-20 01:00:00 4.9 4 Nordeste 9 Norte 0 1015.1 -0.9 93
2019-11-20 00:00:00 4.5 5 Norte 8 Norte 0 1015.5 -0.3 93
2019-11-19 23:00:00 5.3 3 Este 8 Nordeste 0 1016 0.4 89
2019-11-19 22:00:00 6 3 Nordeste -- -- 0 1016 0.7 86
2019-11-19 21:00:00 6.3 4 Norte 11 Norte 0 1015.8 0.8 85
2019-11-19 20:00:00 7.8 8 Norte 9 Norte 0 1015.6 0.8 81
2019-11-19 19:00:00 9.5 4 Nordeste 11 Noroeste 0 1015.3 0.6 72
2019-11-19 18:00:00 11.2 6 Noroeste 13 Oeste 0 1015 0.5 62
2019-11-19 17:00:00 14.2 10 Oeste 24 Oeste 0 1014.8 -0.1 47
2019-11-19 16:00:00 15 18 Oeste 28 Sudoeste 0 1014.7 -0.4 46
2019-11-19 15:00:00 15.5 18 Oeste 30 Sudoeste 0 1014.5 -1.3 48
2019-11-19 14:00:00 15.4 24 Oeste 32 Sudoeste 0 1014.9 -1.2 51
2019-11-19 13:00:00 15.1 20 Oeste 33 Oeste 0 1015.1 -0.9 53
2019-11-19 12:00:00 14.9 12 Oeste 22 Sudoeste 0 1015.8 -0.3 62
2019-11-19 11:00:00 13.2 4 Sudoeste 8 Sudoeste 0 1016.1 0.6 71
2019-11-19 10:00:00 9.8 4 Este 5 Nordeste 0 1016 1 84
2019-11-19 09:00:00 6.5 4 Nordeste 8 Nordeste 0 1016.1 1.2 96
2019-11-19 08:00:00 4.3 4 Norte 8 Noroeste 0 1015.5 0.7 97
2019-11-19 07:00:00 4.2 5 Este 8 Este 0 1015 0.2 97
2019-11-19 06:00:00 5.2 0 Calma 8 Norte 0 1014.9 0.3 97
2019-11-19 05:00:00 5.2 8 Este 13 Nordeste 0 1014.8 0.3 97
2019-11-19 04:00:00 7 10 Oeste 13 Oeste 0 1014.8 0.4 97
2019-11-19 03:00:00 7.2 6 Nordeste 9 Este 0 1014.6 0 96
2019-11-19 02:00:00 8.6 7 Nordeste 8 Nordeste 0 1014.5 0.6 95
2019-11-19 01:00:00 9.4 0 Calma 15 Noroeste 0.1 1014.4 1.3 91
2019-11-19 00:00:00 9.8 12 Noroeste 18 Noroeste 0.3 1014.6 1.7 87
2019-11-18 23:00:00 8.3 4 Norte 9 Noroeste 0 1013.9 1.8 85
2019-11-18 22:00:00 8.6 4 Este 9 Norte 0 1013.1 2 83
2019-11-18 21:00:00 9.3 9 Norte 13 Nordeste 0 1012.9 2.8 74
2019-11-18 20:00:00 10.7 12 Nordeste 17 Nordeste 0 1012.1 3 67
2019-11-18 19:00:00 10.7 13 Nordeste 18 Nordeste 0 1011.1 2.7 72
2019-11-18 18:00:00 11.8 13 Nordeste 28 Nordeste 0 1010.1 2.1 67
2019-11-18 17:00:00 12.9 13 Nordeste 24 Nordeste 0 1009.1 1.8 69
2019-11-18 16:00:00 13.8 15 Nordeste 22 Nordeste 0 1008.4 1.6 71
2019-11-18 15:00:00 12.5 8 Nordeste 24 Nordeste 0.7 1008 0.9 88
2019-11-18 14:00:00 13.8 25 Nordeste 37 Este 0.2 1007.3 0 76
2019-11-18 13:00:00 14.6 9 Nordeste 24 Norte 0 1006.8 0.4 64
2019-11-18 12:00:00 14.4 9 Norte 17 Norte 0 1007.1 0.6 66
2019-11-18 11:00:00 13.1 3 Noroeste 11 Sudeste 0 1007.3 1.4 77
2019-11-18 10:00:00 11.6 5 Nordeste 8 Nordeste 0 1006.4 0.6 90
2019-11-18 09:00:00 11.2 9 Sudeste 17 Norte 0 1006.5 1 91
2019-11-18 08:00:00 10.9 8 Noroeste 13 Noroeste 0 1005.9 0.4 91
2019-11-18 07:00:00 11 5 Nordeste 17 Noroeste 0 1005.8 0 91
2019-11-18 06:00:00 11.2 0 Calma 13 Noroeste 0.6 1005.5 -1 94
2019-11-18 05:00:00 11.1 3 Norte 8 Norte 0.3 1005.5 -1.3 96
2019-11-18 04:00:00 11.3 5 Nordeste 8 Nordeste 0.1 1005.8 -1.7 95
2019-11-18 03:00:00 12.4 6 Oeste 21 Oeste 0.6 1006.5 -1.6 89
2019-11-18 02:00:00 13.2 14 Oeste 26 Oeste 0.2 1006.8 -1.2 80
2019-11-18 01:00:00 14.7 17 Oeste 32 Oeste 0 1007.5 -1.5 68
2019-11-18 00:00:00 12.8 9 Noroeste 30 Sudoeste 0 1008.1 -1.5 74
2019-11-17 23:00:00 14.9 19 Sudoeste 30 Sudoeste 0 1008 -1.9 65
2019-11-17 22:00:00 14.3 6 Noroeste 28 Oeste 0 1009 -1 65
2019-11-17 21:00:00 14.6 21 Oeste 33 Oeste 0 1009.6 -0.1 62
2019-11-17 20:00:00 14.7 22 Sudoeste 33 Oeste 0 1009.9 0 57
2019-11-17 19:00:00 14.4 15 Oeste 35 Oeste 0 1010 0.2 61
2019-11-17 18:00:00 14.1 21 Oeste 39 Oeste 0 1009.7 -0.4 60
2019-11-17 17:00:00 14.6 28 Oeste 42 Oeste 0 1009.9 -0.2 57
2019-11-17 16:00:00 15.2 25 Oeste 46 Oeste 0 1009.8 -0.7 53
2019-11-17 15:00:00 15.2 32 Oeste 46 Sudoeste 0 1010.1 -0.7 55
2019-11-17 14:00:00 15.1 31 Oeste 48 Oeste 0 1010.1 -1 54
2019-11-17 13:00:00 14.9 34 Oeste 45 Oeste 0 1010.5 -0.5 58
2019-11-17 12:00:00 15 24 Oeste 33 Oeste 0 1010.8 0 47
2019-11-17 11:00:00 15.5 24 Oeste 39 Oeste 0 1011.1 0.8 46
2019-11-17 10:00:00 14.7 18 Oeste 30 Oeste 0 1011 1 49
2019-11-17 09:00:00 12.9 12 Oeste 21 Oeste 0 1010.8 1 56
2019-11-17 08:00:00 10.2 9 Oeste 17 Oeste 0 1010.3 0.3 61
2019-11-17 07:00:00 11.1 14 Noroeste 26 Noroeste 0 1010 -0.2 57
2019-11-17 06:00:00 11.3 12 Oeste 18 Oeste 0 1009.8 -0.5 57
2019-11-17 05:00:00 11.7 11 Sudoeste 30 Oeste 0 1010 -0.1 53
2019-11-17 04:00:00 12.5 14 Oeste 32 Noroeste 0 1010.2 -0.1 52
2019-11-17 03:00:00 12.4 13 Oeste 33 Noroeste 0 1010.3 -0.3 54
2019-11-17 02:00:00 12.7 15 Oeste 35 Noroeste 0.2 1010.1 -0.8 55
2019-11-17 01:00:00 13 20 Oeste 39 Noroeste 0 1010.3 -0.4 57
2019-11-17 00:00:00 12.1 10 Oeste 24 Oeste 0 1010.6 0 60
2019-11-16 23:00:00 11.6 14 Noroeste 30 Noroeste 0 1010.9 0.2 60
2019-11-16 22:00:00 11.1 9 Oeste 22 Noroeste 0 1010.7 0.5 62
2019-11-16 21:00:00 11 19 Noroeste 30 Noroeste 0 1010.6 1 69
2019-11-16 20:00:00 8.9 6 Noroeste 13 Norte 0 1010.7 1.9 85
2019-11-16 19:00:00 9.5 9 Norte 15 Norte 0 1010.2 1.6 82
2019-11-16 18:00:00 10.5 6 Norte 21 Norte 0 1009.6 0.9 80
2019-11-16 17:00:00 11.6 12 Norte 22 Norte 0 1008.8 0.2 70
2019-11-16 16:00:00 11.8 10 Noroeste 15 Noroeste 0 1008.6 0.2 75
2019-11-16 15:00:00 10.7 6 Este 30 Norte 2 1008.7 -0.3 85
2019-11-16 14:00:00 13.4 22 Norte 37 Norte 0 1008.6 -0.7 63
2019-11-16 13:00:00 13.7 3 Noroeste 5 Norte 0 1008.4 -0.6 62
2019-11-16 12:00:00 11.8 4 Norte 8 Noroeste 0 1009 0.5 72
2019-11-16 11:00:00 10.1 3 Nordeste 13 Noroeste 0 1009.3 1.1 78
2019-11-16 10:00:00 8.9 8 Noroeste 13 Noroeste 0 1009 1.9 83
2019-11-16 09:00:00 7.7 5 Norte 11 Nordeste 0 1008.5 2 85
2019-11-16 08:00:00 7 9 Nordeste 15 Este 0 1008.2 2 85
2019-11-16 07:00:00 6.4 9 Nordeste 13 Sudeste 0 1007.1 0.6 91
2019-11-16 06:00:00 7.3 6 Nordeste 13 Noroeste 0 1006.5 -0.2 87
2019-11-16 05:00:00 8 9 Norte 18 Nordeste 0 1006.2 0 83
2019-11-16 04:00:00 8.2 11 Este 15 Este 0 1006.5 0.9 83
2019-11-16 03:00:00 8.7 7 Este 32 Noroeste 0.2 1006.7 1.3 80
2019-11-16 02:00:00 8.7 19 Norte 30 Norte 2 1006.2 0.8 85
2019-11-16 01:00:00 6.6 10 Nordeste 15 Norte 0 1005.6 0.4 87
2019-11-16 00:00:00 4.8 6 Noroeste 9 Nordeste 0 1005.4 0.9 93